createdAt,value
2018-03-10T00:01:45.613Z,98920.34
2018-03-10T00:04:13.178Z,98928.52
2018-03-10T00:06:40.677Z,98926.05
2018-03-10T00:09:08.149Z,98921.77
2018-03-10T00:11:35.626Z,98931.53
2018-03-10T00:14:03.204Z,98927.75
2018-03-10T00:16:30.704Z,98930.30
2018-03-10T00:18:58.208Z,98936.70
2018-03-10T00:21:25.782Z,98941.36
2018-03-10T00:23:53.254Z,98938.36
2018-03-10T00:26:20.755Z,98940.91
2018-03-10T00:28:48.326Z,98925.63
2018-03-10T00:31:15.848Z,98920.89
2018-03-10T00:33:43.402Z,98914.91
2018-03-10T00:36:10.925Z,98930.98
2018-03-10T00:38:38.399Z,98929.72
2018-03-10T00:41:05.884Z,98930.98
2018-03-10T00:43:33.854Z,98925.89
2018-03-10T00:46:01.496Z,98923.27
2018-03-10T00:48:30.347Z,98929.30
2018-03-10T00:50:58.932Z,98932.77
2018-03-10T00:53:26.466Z,98931.06
2018-03-10T00:55:53.947Z,98926.86
2018-03-10T00:58:21.660Z,98923.50
2018-03-10T01:00:49.176Z,98917.06
2018-03-10T01:03:17.726Z,98915.41
2018-03-10T01:05:45.241Z,98923.12
2018-03-10T01:08:12.806Z,98919.77
2018-03-10T01:10:40.298Z,98917.30
2018-03-10T01:13:07.822Z,98919.45
2018-03-10T01:15:35.296Z,98919.92
2018-03-10T01:18:02.804Z,98915.67
2018-03-10T01:20:30.375Z,98916.06
2018-03-10T01:22:57.828Z,98926.17
2018-03-10T01:25:25.283Z,98913.48
2018-03-10T01:27:52.777Z,98909.73
2018-03-10T01:30:20.228Z,98893.70
2018-03-10T01:32:47.686Z,98889.72
2018-03-10T01:35:15.207Z,98884.83
2018-03-10T01:37:42.682Z,98887.95
2018-03-10T01:40:10.163Z,98884.30
2018-03-10T01:42:37.674Z,98877.20
2018-03-10T01:45:05.150Z,98879.81
2018-03-10T01:47:32.662Z,98878.58
2018-03-10T01:50:00.140Z,98874.80
2018-03-10T01:52:28.244Z,98877.89
2018-03-10T01:54:55.731Z,98881.34
2018-03-10T01:57:23.255Z,98882.22
2018-03-10T01:59:50.687Z,98877.14
2018-03-10T02:02:18.440Z,98871.23
2018-03-10T02:04:45.983Z,98871.72
2018-03-10T02:07:13.456Z,98865.82
2018-03-10T02:09:40.927Z,98867.12
2018-03-10T02:12:08.402Z,98870.09
2018-03-10T02:14:35.901Z,98866.24
2018-03-10T02:17:03.396Z,98875.98
2018-03-10T02:19:30.925Z,98873.47
2018-03-10T02:21:58.400Z,98862.91
2018-03-10T02:24:25.968Z,98863.31
2018-03-10T02:26:53.426Z,98865.03
2018-03-10T02:29:20.923Z,98860.85
2018-03-10T02:31:48.423Z,98871.53
2018-03-10T02:34:15.982Z,98863.93
2018-03-10T02:36:43.454Z,98867.77
2018-03-10T02:39:10.940Z,98860.99
2018-03-10T02:41:38.398Z,98859.27
2018-03-10T02:44:05.872Z,98872.37
2018-03-10T02:46:33.375Z,98879.99
2018-03-10T02:49:00.843Z,98876.19
2018-03-10T02:51:28.992Z,98869.33
2018-03-10T02:53:56.483Z,98879.09
2018-03-10T02:56:23.936Z,98879.91
2018-03-10T02:58:51.392Z,98875.28
2018-03-10T03:01:18.904Z,98874.46
2018-03-10T03:03:46.572Z,98866.41
2018-03-10T03:06:14.034Z,98869.41
2018-03-10T03:08:41.528Z,98871.13
2018-03-10T03:11:08.996Z,98868.95
2018-03-10T03:13:36.501Z,98868.11
2018-03-10T03:16:04.097Z,98874.06
2018-03-10T03:18:32.672Z,98866.02
2018-03-10T03:21:00.171Z,98866.81
2018-03-10T03:23:27.627Z,98872.31
2018-03-10T03:25:55.083Z,98869.30
2018-03-10T03:28:22.566Z,98872.66
2018-03-10T03:30:50.041Z,98866.36
2018-03-10T03:33:17.738Z,98874.46
2018-03-10T03:35:45.221Z,98871.50
2018-03-10T03:38:12.660Z,98866.84
2018-03-10T03:40:40.167Z,98874.89
2018-03-10T03:43:07.622Z,98880.39
2018-03-10T03:45:35.078Z,98880.36
2018-03-10T03:48:02.584Z,98873.13
2018-03-10T03:50:30.239Z,98888.38
2018-03-10T03:52:57.700Z,98883.30
2018-03-10T03:55:25.186Z,98889.17
2018-03-10T03:57:52.638Z,98881.94
2018-03-10T04:00:20.129Z,98881.94
2018-03-10T04:02:47.603Z,98881.01
2018-03-10T04:05:15.080Z,98873.80
2018-03-10T04:07:42.555Z,98876.73
2018-03-10T04:10:10.015Z,98883.09
2018-03-10T04:12:37.483Z,98875.50
2018-03-10T04:15:04.976Z,98872.99
2018-03-10T04:17:32.437Z,98865.36
2018-03-10T04:19:59.910Z,98861.58
2018-03-10T04:22:27.383Z,98860.80
2018-03-10T04:24:55.852Z,98854.98
2018-03-10T04:27:23.320Z,98849.11
2018-03-10T04:29:50.787Z,98851.23
2018-03-10T04:32:18.307Z,98843.19
2018-03-10T04:34:45.763Z,98840.70
2018-03-10T04:37:13.222Z,98849.64
2018-03-10T04:39:40.683Z,98856.44
2018-03-10T04:42:08.164Z,98850.09
2018-03-10T04:44:35.670Z,98849.67
2018-03-10T04:47:03.131Z,98848.84
2018-03-10T04:49:30.604Z,98850.97
2018-03-10T04:51:58.095Z,98855.65
2018-03-10T04:54:26.061Z,98853.16
2018-03-10T04:56:54.582Z,98856.07
2018-03-10T04:59:22.059Z,98857.81
2018-03-10T05:01:49.504Z,98856.98
2018-03-10T05:04:17.217Z,98863.77
2018-03-10T05:06:44.926Z,98862.92
2018-03-10T05:09:12.481Z,98856.97
2018-03-10T05:11:39.951Z,98859.55
2018-03-10T05:14:07.432Z,98862.16
2018-03-10T05:16:34.908Z,98863.02
2018-03-10T05:19:02.377Z,98862.62
2018-03-10T05:21:29.876Z,98856.28
2018-03-10T05:23:57.338Z,98855.39
2018-03-10T05:26:24.798Z,98855.78
2018-03-10T05:28:52.303Z,98856.66
2018-03-10T05:31:20.169Z,98846.12
2018-03-10T05:33:47.631Z,98839.80
2018-03-10T05:36:15.106Z,98839.80
2018-03-10T05:38:42.564Z,98838.13
2018-03-10T05:41:10.036Z,98836.86
2018-03-10T05:43:37.506Z,98826.28
2018-03-10T05:46:04.963Z,98829.63
2018-03-10T05:48:32.435Z,98823.23
2018-03-10T05:50:59.903Z,98821.09
2018-03-10T05:53:27.356Z,98822.01
2018-03-10T05:55:54.861Z,98824.55
2018-03-10T05:58:22.325Z,98840.17
2018-03-10T06:00:49.872Z,98848.64
2018-03-10T06:03:17.483Z,98867.65
2018-03-10T06:05:44.935Z,98876.56
2018-03-10T06:08:12.415Z,98870.19
2018-03-10T06:10:39.913Z,98869.72
2018-03-10T06:13:07.363Z,98877.30
2018-03-10T06:15:34.848Z,98877.23
2018-03-10T06:18:02.381Z,98880.09
2018-03-10T06:20:29.838Z,98886.82
2018-03-10T06:22:57.329Z,98889.76
2018-03-10T06:25:24.780Z,98880.81
2018-03-10T06:27:52.244Z,98885.36
2018-03-10T06:30:19.772Z,98886.13
2018-03-10T06:32:47.364Z,98894.93
2018-03-10T06:35:14.814Z,98893.53
2018-03-10T06:37:42.360Z,98892.62
2018-03-10T06:40:09.908Z,98899.28
2018-03-10T06:42:37.401Z,98895.85
2018-03-10T06:45:04.913Z,98897.13
2018-03-10T06:47:32.363Z,98895.85
2018-03-10T06:49:59.851Z,98894.88
2018-03-10T06:52:33.298Z,98902.40
2018-03-10T06:55:00.796Z,98900.55
2018-03-10T06:57:28.247Z,98902.95
2018-03-10T06:59:55.706Z,98910.51
2018-03-10T07:02:23.165Z,98913.79
2018-03-10T07:04:50.616Z,98909.04
2018-03-10T07:07:18.103Z,98908.80
2018-03-10T07:09:45.562Z,98909.34
2018-03-10T07:12:13.091Z,98907.33
2018-03-10T07:14:40.551Z,98901.99
2018-03-10T07:17:08.047Z,98915.01
2018-03-10T07:19:35.530Z,98911.76
2018-03-10T07:22:03.020Z,98907.98
2018-03-10T07:24:31.008Z,98908.80
2018-03-10T07:26:58.496Z,98915.12
2018-03-10T07:29:25.950Z,98912.89
2018-03-10T07:31:53.498Z,98911.51
2018-03-10T07:34:20.928Z,98896.42
2018-03-10T07:36:48.387Z,98896.16
2018-03-10T07:39:15.845Z,98895.36
2018-03-10T07:41:43.331Z,98894.39
2018-03-10T07:44:10.843Z,98891.29
2018-03-10T07:46:38.442Z,98892.41
2018-03-10T07:49:05.908Z,98893.06
2018-03-10T07:51:33.384Z,98887.42
2018-03-10T07:54:00.884Z,98891.02
2018-03-10T07:56:28.336Z,98887.41
2018-03-10T07:58:55.813Z,98886.08
2018-03-10T08:01:24.604Z,98882.13
2018-03-10T08:03:52.223Z,98884.05
2018-03-10T08:06:19.799Z,98887.27
2018-03-10T08:08:47.246Z,98894.31
2018-03-10T08:11:14.720Z,98895.59
2018-03-10T08:13:42.190Z,98899.92
2018-03-10T08:16:09.636Z,98895.11
2018-03-10T08:18:37.123Z,98895.51
2018-03-10T08:21:04.606Z,98893.48
2018-03-10T08:23:32.090Z,98897.55
2018-03-10T08:25:59.571Z,98896.11
2018-03-10T08:28:27.050Z,98892.48
2018-03-10T08:30:54.508Z,98902.13
2018-03-10T08:33:22.023Z,98900.78
2018-03-10T08:35:49.503Z,98898.27
2018-03-10T08:38:17.560Z,98895.00
2018-03-10T08:40:45.092Z,98888.41
2018-03-10T08:43:12.629Z,98886.39
2018-03-10T08:45:40.190Z,98887.86
2018-03-10T08:48:07.723Z,98884.59
2018-03-10T08:50:36.256Z,98893.45
2018-03-10T08:53:03.755Z,98890.22
2018-03-10T08:55:31.231Z,98886.31
2018-03-10T08:57:58.722Z,98887.76
2018-03-10T09:00:26.312Z,98887.42
2018-03-10T09:02:53.823Z,98882.64
2018-03-10T09:05:21.286Z,98884.61
2018-03-10T09:07:48.760Z,98881.22
2018-03-10T09:10:16.237Z,98881.13
2018-03-10T09:12:44.255Z,98884.74
2018-03-10T09:15:11.818Z,98877.36
2018-03-10T09:17:39.316Z,98878.44
2018-03-10T09:20:06.862Z,98872.26
2018-03-10T09:22:34.781Z,98870.80
2018-03-10T09:25:02.254Z,98871.22
2018-03-10T09:27:29.735Z,98871.25
2018-03-10T09:29:57.212Z,98873.01
2018-03-10T09:32:24.707Z,98872.17
2018-03-10T09:34:52.199Z,98866.27
2018-03-10T09:37:19.671Z,98864.80
2018-03-10T09:39:47.164Z,98856.70
2018-03-10T09:42:14.648Z,98852.46
2018-03-10T09:44:42.205Z,98851.68
2018-03-10T09:47:10.018Z,98857.03
2018-03-10T09:49:37.562Z,98856.61
2018-03-10T09:52:05.040Z,98843.16
2018-03-10T09:54:33.291Z,98841.85
2018-03-10T09:57:00.774Z,98836.69
2018-03-10T09:59:28.260Z,98831.80
2018-03-10T10:01:55.781Z,98836.69
2018-03-10T10:04:23.272Z,98834.20
2018-03-10T10:06:53.151Z,98831.53
2018-03-10T10:09:20.704Z,98832.92
2018-03-10T10:11:48.705Z,98827.47
2018-03-10T10:14:17.670Z,98830.90
2018-03-10T10:19:20.588Z,98835.77
2018-03-10T10:21:48.073Z,98839.85
2018-03-10T10:24:15.596Z,98837.17
2018-03-10T10:26:43.209Z,98843.06
2018-03-10T10:29:10.723Z,98847.25
2018-03-10T10:31:38.264Z,98840.98
2018-03-10T10:34:06.115Z,98847.55
2018-03-10T10:36:33.582Z,98847.45
2018-03-10T10:39:01.373Z,98852.94
2018-03-10T10:41:28.860Z,98843.68
2018-03-10T10:43:56.323Z,98847.88
2018-03-10T10:46:23.835Z,98844.59
2018-03-10T10:48:51.299Z,98842.11
2018-03-10T10:51:19.753Z,98845.91
2018-03-10T10:53:47.220Z,98838.92
2018-03-10T10:56:14.872Z,98841.28
2018-03-10T10:58:42.336Z,98839.85
2018-03-10T11:01:10.745Z,98840.81
2018-03-10T11:03:49.030Z,98839.31
2018-03-10T11:06:16.520Z,98839.85
2018-03-10T11:08:44.055Z,98838.91
2018-03-10T11:11:11.533Z,98826.84
2018-03-10T11:13:39.085Z,98821.09
2018-03-10T11:16:06.568Z,98821.21
2018-03-10T11:18:34.074Z,98819.06
2018-03-10T11:21:01.641Z,98821.31
2018-03-10T11:23:29.195Z,98813.72
2018-03-10T11:25:56.690Z,98803.63
2018-03-10T11:28:24.743Z,98802.78
2018-03-10T11:30:53.648Z,98806.31
2018-03-10T11:33:21.183Z,98806.51
2018-03-10T11:35:48.774Z,98799.06
2018-03-10T11:38:17.660Z,98799.82
2018-03-10T11:40:45.213Z,98789.14
2018-03-10T11:43:12.746Z,98785.75
2018-03-10T11:45:40.220Z,98781.47
2018-03-10T11:48:07.742Z,98782.02
2018-03-10T11:50:35.420Z,98775.43
2018-03-10T11:53:02.912Z,98778.53
2018-03-10T11:55:30.418Z,98772.10
2018-03-10T11:57:58.196Z,98764.91
2018-03-10T12:00:26.825Z,98765.41
2018-03-10T12:02:54.315Z,98762.11
2018-03-10T12:05:21.875Z,98766.51
2018-03-10T12:07:49.394Z,98764.11
2018-03-10T12:10:17.488Z,98767.16
2018-03-10T12:12:45.209Z,98760.88
2018-03-10T12:15:14.511Z,98759.56
2018-03-10T12:20:14.464Z,98760.64
2018-03-10T12:22:42.031Z,98750.97
2018-03-10T12:25:09.512Z,98749.25
2018-03-10T12:27:37.162Z,98740.75
2018-03-10T12:30:04.718Z,98740.77
2018-03-10T12:32:32.560Z,98738.37
2018-03-10T12:35:01.068Z,98732.78
2018-03-10T12:37:28.620Z,98737.88
2018-03-10T12:39:56.242Z,98740.27
2018-03-10T12:42:23.824Z,98726.63
2018-03-10T12:44:51.302Z,98729.80
2018-03-10T12:47:18.877Z,98732.56
2018-03-10T12:49:46.379Z,98731.77
2018-03-10T12:52:13.884Z,98728.41
2018-03-10T12:54:41.839Z,98728.83
2018-03-10T12:57:09.367Z,98724.67
2018-03-10T12:59:37.251Z,98725.25
2018-03-10T13:02:04.872Z,98723.41
2018-03-10T13:04:33.203Z,98717.34
2018-03-10T13:07:00.696Z,98720.94
2018-03-10T13:09:28.807Z,98722.03
2018-03-10T13:11:56.704Z,98720.72
2018-03-10T13:14:24.197Z,98722.36
2018-03-10T13:16:51.691Z,98727.38
2018-03-10T13:19:19.190Z,98722.69
2018-03-10T13:21:46.664Z,98721.10
2018-03-10T13:24:14.150Z,98723.83
2018-03-10T13:26:41.656Z,98721.43
2018-03-10T13:29:09.107Z,98713.59
2018-03-10T13:31:36.592Z,98719.50
2018-03-10T13:34:04.102Z,98713.59
2018-03-10T13:36:31.905Z,98707.23
2018-03-10T13:38:59.815Z,98709.95
2018-03-10T13:41:27.709Z,98721.48
2018-03-10T13:43:55.210Z,98722.25
2018-03-10T13:46:24.476Z,98723.48
2018-03-10T13:48:51.988Z,98723.63
2018-03-10T13:51:20.022Z,98723.60
2018-03-10T13:53:47.545Z,98719.79
2018-03-10T13:56:15.308Z,98721.47
2018-03-10T13:58:42.851Z,98723.51
2018-03-10T14:01:12.335Z,98718.73
2018-03-10T14:03:53.321Z,98720.95
2018-03-10T14:06:21.189Z,98727.03
2018-03-10T14:08:48.656Z,98725.05
2018-03-10T14:11:16.188Z,98723.31
2018-03-10T14:13:43.791Z,98724.41
2018-03-10T14:16:11.376Z,98724.67
2018-03-10T14:18:46.927Z,98715.83
2018-03-10T14:21:14.738Z,98714.27
2018-03-10T14:36:41.601Z,98723.89
2018-03-10T14:39:10.376Z,98715.84
2018-03-10T14:41:37.998Z,98722.13
2018-03-10T14:44:06.382Z,98722.44
2018-03-10T14:46:35.563Z,98721.28
2018-03-10T14:49:03.132Z,98723.53
2018-03-10T14:51:34.440Z,98723.55
2018-03-10T14:54:05.198Z,98715.91
2018-03-10T14:56:32.718Z,98722.73
2018-03-10T14:59:00.261Z,98715.09
2018-03-10T15:01:27.814Z,98712.05
2018-03-10T15:03:55.362Z,98720.50
2018-03-10T15:06:22.883Z,98715.47
2018-03-10T15:08:50.405Z,98720.48
2018-03-10T15:11:18.010Z,98720.05
2018-03-10T15:13:45.553Z,98722.77
2018-03-10T15:16:13.415Z,98724.70
2018-03-10T15:18:40.944Z,98729.05
2018-03-10T15:21:09.162Z,98730.58
2018-03-10T15:23:36.705Z,98727.34
2018-03-10T15:26:05.250Z,98728.11
2018-03-10T15:33:39.239Z,98727.14
2018-03-10T15:36:06.793Z,98727.83
2018-03-10T15:38:36.446Z,98721.41
2018-03-10T15:41:04.244Z,98719.54
2018-03-10T15:43:32.454Z,98721.59
2018-03-10T15:48:32.610Z,98722.91
2018-03-10T15:51:01.001Z,98721.39
2018-03-10T15:53:32.526Z,98724.79
2018-03-10T15:56:00.503Z,98724.50
2018-03-10T15:58:28.816Z,98724.75
2018-03-10T16:00:56.410Z,98725.44
2018-03-10T16:03:24.133Z,98725.52
2018-03-10T16:08:37.909Z,98725.50
2018-03-10T16:11:05.604Z,98719.10
2018-03-10T16:13:34.061Z,98720.45
2018-03-10T16:16:01.649Z,98720.42
2018-03-10T16:18:30.365Z,98721.16
2018-03-10T16:20:57.909Z,98720.61
2018-03-10T16:23:25.451Z,98719.30
2018-03-10T16:25:53.009Z,98723.09
2018-03-10T16:28:20.670Z,98719.15
2018-03-10T16:30:51.773Z,98720.39
2018-03-10T16:33:20.513Z,98724.08
2018-03-10T16:35:48.163Z,98718.91
2018-03-10T16:38:16.516Z,98725.24
2018-03-10T16:40:44.046Z,98720.06
2018-03-10T16:43:11.558Z,98717.00
2018-03-10T16:45:39.293Z,98721.98
2018-03-10T16:48:06.940Z,98719.73
2018-03-10T16:50:35.901Z,98717.92
2018-03-10T16:53:03.566Z,98718.19
2018-03-10T16:58:04.744Z,98718.01
2018-03-10T17:00:32.473Z,98717.00
2018-03-10T17:03:00.908Z,98715.55
2018-03-10T17:05:29.700Z,98722.64
2018-03-10T17:07:57.333Z,98730.13
2018-03-10T17:10:24.915Z,98723.04
2018-03-10T17:12:53.738Z,98725.80
2018-03-10T17:15:21.469Z,98732.70
2018-03-10T17:17:49.008Z,98732.80
2018-03-10T17:20:16.829Z,98726.48
2018-03-10T17:22:44.612Z,98727.86
2018-03-10T17:25:12.107Z,98734.38
2018-03-10T17:27:39.653Z,98732.78
2018-03-10T17:30:07.128Z,98741.73
2018-03-10T17:32:34.706Z,98742.16
2018-03-10T17:35:02.242Z,98746.41
2018-03-10T17:37:29.752Z,98747.71
2018-03-10T17:39:57.426Z,98748.55
2018-03-10T17:42:25.045Z,98745.55
2018-03-10T17:44:52.607Z,98744.27
2018-03-10T17:47:20.787Z,98746.40
2018-03-10T17:49:48.445Z,98748.63
2018-03-10T17:52:16.808Z,98748.24
2018-03-10T17:54:44.669Z,98747.45
2018-03-10T17:57:12.312Z,98745.66
2018-03-10T17:59:39.864Z,98748.88
2018-03-10T18:02:07.379Z,98751.05
2018-03-10T18:04:35.173Z,98748.21
2018-03-10T18:07:02.679Z,98749.01
2018-03-10T18:09:30.255Z,98747.79
2018-03-10T18:11:58.811Z,98749.23
2018-03-10T18:14:28.647Z,98754.97
2018-03-10T18:17:02.394Z,98753.44
2018-03-10T18:19:30.867Z,98751.86
2018-03-10T18:21:58.479Z,98755.41
2018-03-10T18:24:31.222Z,98759.00
2018-03-10T18:27:00.637Z,98768.55
2018-03-10T18:29:28.216Z,98768.20
2018-03-10T18:31:55.793Z,98768.30
2018-03-10T18:34:23.312Z,98767.54
2018-03-10T18:36:51.777Z,98769.24
2018-03-10T18:39:19.366Z,98765.84
2018-03-10T18:41:46.941Z,98764.38
2018-03-10T18:44:17.269Z,98762.43
2018-03-10T18:46:46.616Z,98768.89
2018-03-10T18:51:48.388Z,98770.05
2018-03-10T18:56:48.049Z,98773.80
2018-03-10T18:59:15.669Z,98775.08
2018-03-10T19:01:44.706Z,98771.24
2018-03-10T19:04:12.587Z,98772.45
2018-03-10T19:06:40.087Z,98776.05
2018-03-10T19:09:07.656Z,98764.69
2018-03-10T19:14:19.096Z,98771.08
2018-03-10T19:16:46.626Z,98768.58
2018-03-10T19:22:17.755Z,98770.45
2018-03-10T19:24:47.830Z,98777.42
2018-03-10T19:29:51.346Z,98778.28
2018-03-10T19:32:21.955Z,98773.19
2018-03-10T19:34:49.539Z,98768.78
2018-03-10T19:37:17.582Z,98774.30
2018-03-10T19:39:45.136Z,98766.81
2018-03-10T20:00:53.052Z,98763.72
2018-03-10T20:03:20.594Z,98763.10
2018-03-10T20:05:48.103Z,98764.38
2018-03-10T20:08:15.857Z,98759.34
2018-03-10T20:10:43.392Z,98758.91
2018-03-10T20:13:10.860Z,98766.11
2018-03-10T20:15:38.415Z,98766.35
2018-03-10T20:18:05.898Z,98767.66
2018-03-10T20:20:33.515Z,98769.22
2018-03-10T20:23:01.156Z,98775.59
2018-03-10T20:25:28.637Z,98780.40
2018-03-10T20:27:56.185Z,98780.47
2018-03-10T20:30:23.790Z,98782.88
2018-03-10T20:32:51.352Z,98778.66
2018-03-10T20:35:18.942Z,98788.63
2018-03-10T20:37:46.431Z,98795.25
2018-03-10T20:40:13.919Z,98794.47
2018-03-10T20:42:41.422Z,98794.23
2018-03-10T20:45:09.044Z,98796.45
2018-03-10T20:47:36.429Z,98800.60
2018-03-10T20:50:03.984Z,98798.48
2018-03-10T20:52:31.695Z,98801.40
2018-03-10T20:54:59.216Z,98803.27
2018-03-10T20:57:26.772Z,98806.36
2018-03-10T20:59:54.297Z,98809.93
2018-03-10T21:02:21.832Z,98807.88
2018-03-10T21:04:49.411Z,98808.28
2018-03-10T21:07:16.955Z,98806.22
2018-03-10T21:09:44.458Z,98804.58
2018-03-10T21:12:11.972Z,98808.00
2018-03-10T21:14:39.627Z,98807.61
2018-03-10T21:17:07.007Z,98807.13
2018-03-10T21:19:34.501Z,98810.08
2018-03-10T21:22:02.130Z,98805.28
2018-03-10T21:24:29.660Z,98802.34
2018-03-10T21:26:57.253Z,98800.30
2018-03-10T21:29:24.794Z,98800.75
2018-03-10T21:31:52.337Z,98802.84
2018-03-10T21:34:19.802Z,98799.63
2018-03-10T21:36:47.615Z,98800.23
2018-03-10T21:39:15.231Z,98801.62
2018-03-10T21:41:42.735Z,98805.16
2018-03-10T21:44:10.258Z,98800.56
2018-03-10T21:46:37.751Z,98795.88
2018-03-10T21:49:05.408Z,98795.94
2018-03-10T21:51:32.996Z,98793.39
2018-03-10T21:54:00.523Z,98797.64
2018-03-10T21:56:28.023Z,98796.56
2018-03-10T21:58:55.479Z,98796.16
2018-03-10T22:01:23.092Z,98785.77
2018-03-10T22:03:50.601Z,98791.75
2018-03-10T22:06:18.281Z,98795.66
2018-03-10T22:08:45.659Z,98792.24
2018-03-10T22:11:13.173Z,98794.10
2018-03-10T22:13:40.721Z,98790.77
2018-03-10T22:16:08.210Z,98789.92
2018-03-10T22:18:35.680Z,98794.03
2018-03-10T22:21:03.250Z,98794.30
2018-03-10T22:23:30.779Z,98794.39
2018-03-10T22:25:58.305Z,98795.94
2018-03-10T22:28:25.841Z,98793.53
2018-03-10T22:30:53.385Z,98796.69
2018-03-10T22:33:20.868Z,98799.81
2018-03-10T22:35:48.401Z,98789.53
2018-03-10T22:38:15.965Z,98789.41
2018-03-10T22:40:43.448Z,98793.80
2018-03-10T22:43:10.944Z,98785.03
2018-03-10T22:45:38.440Z,98792.41
2018-03-10T22:48:05.970Z,98793.27
2018-03-10T22:50:33.609Z,98789.98
2018-03-10T22:53:01.105Z,98797.30
2018-03-10T22:55:28.600Z,98796.50
2018-03-10T22:57:56.056Z,98799.48
2018-03-10T23:00:35.560Z,98792.20
2018-03-10T23:03:03.044Z,98789.22
2018-03-10T23:05:31.497Z,98781.98
2018-03-10T23:07:59.005Z,98786.73
2018-03-10T23:10:26.685Z,98787.20
2018-03-10T23:12:54.049Z,98784.30
2018-03-10T23:15:21.556Z,98783.56
2018-03-10T23:17:49.093Z,98784.42
2018-03-10T23:20:16.680Z,98787.94
2018-03-10T23:22:44.141Z,98782.53
2018-03-10T23:25:11.596Z,98781.39
2018-03-10T23:27:39.098Z,98786.98
2018-03-10T23:30:06.629Z,98783.58
2018-03-10T23:32:34.119Z,98783.22
2018-03-10T23:35:02.455Z,98776.48
2018-03-10T23:37:29.961Z,98774.83
2018-03-10T23:39:57.440Z,98779.02
2018-03-10T23:42:25.008Z,98776.00
2018-03-10T23:44:53.347Z,98773.01
2018-03-10T23:47:20.831Z,98773.12
2018-03-10T23:49:48.292Z,98770.56
2018-03-10T23:52:16.752Z,98771.86
2018-03-10T23:54:44.401Z,98774.94
2018-03-10T23:57:11.859Z,98775.80
2018-03-10T23:59:40.281Z,98774.59
